KANW/ANW METAR and TAF weather

Enter ICAO airport designator
Station Type Date Time Source
KANW METAR 2020/08/14 17:35 UTC NOAA

KANW 141735Z AUTO 33012KT 10SM CLR 24/17 A3002 RMK AO2 T02390166


Station Type Date Time Source
KANW Decoded METAR 2020/08/14 17:35 UTC NOAA

Ainsworth Municipal, NE, United States (KANW) 42-35N 100-00W
Aug 14, 2020 - 01:35 PM EDT / 2020.08.14 1735 UTC
Wind: from the NNW (330 degrees) at 14 MPH (12 KT):0
Visibility: 10 mile(s):0
Sky conditions: clear
Temperature: 75.0 F (23.9 C)
Dew Point: 61.9 F (16.6 C)
Relative Humidity: 63%
Pressure (altimeter): 30.02 in. Hg (1016 hPa)
ob: KANW 141735Z AUTO 33012KT 10SM CLR 24/17 A3002 RMK AO2 T02390166
cycle: 17

Station Type Date Time Source
KANW TAF UTC NOAA

Error!

Example: see airport list